sensor_id;sensor_type;location;lat;lon;timestamp;P1;durP1;ratioP1;P2;durP2;ratioP2
31836;SDS011;18401;49.344;6.240;2023-01-19T04:58:39;23.83;;;11.20;;
31836;SDS011;18401;49.344;6.240;2023-01-19T05:01:08;25.73;;;12.35;;
31836;SDS011;18401;49.344;6.240;2023-01-19T05:03:33;22.17;;;11.80;;
31836;SDS011;18401;49.344;6.240;2023-01-19T05:05:59;26.92;;;12.38;;
31836;SDS011;18401;49.344;6.240;2023-01-19T05:08:25;25.27;;;11.15;;
31836;SDS011;18401;49.344;6.240;2023-01-19T05:10:51;23.98;;;12.02;;
31836;SDS011;18401;49.344;6.240;2023-01-19T05:13:16;23.02;;;11.35;;
31836;SDS011;18401;49.344;6.240;2023-01-19T05:15:43;22.08;;;11.40;;
31836;SDS011;18401;49.344;6.240;2023-01-19T05:18:08;23.80;;;11.68;;
31836;SDS011;18401;49.344;6.240;2023-01-19T05:20:34;22.80;;;12.07;;
31836;SDS011;18401;49.344;6.240;2023-01-19T05:23:00;28.25;;;11.50;;
31836;SDS011;18401;49.344;6.240;2023-01-19T05:25:25;24.45;;;13.07;;
31836;SDS011;18401;49.344;6.240;2023-01-19T05:27:51;24.65;;;12.43;;
31836;SDS011;18401;49.344;6.240;2023-01-19T05:30:17;21.33;;;11.30;;
31836;SDS011;18401;49.344;6.240;2023-01-19T05:32:43;24.00;;;12.60;;
31836;SDS011;18401;49.344;6.240;2023-01-19T05:35:09;26.77;;;13.73;;
31836;SDS011;18401;49.344;6.240;2023-01-19T05:37:34;28.95;;;13.35;;
31836;SDS011;18401;49.344;6.240;2023-01-19T05:40:00;24.30;;;13.38;;
31836;SDS011;18401;49.344;6.240;2023-01-19T05:42:26;27.63;;;13.93;;
31836;SDS011;18401;49.344;6.240;2023-01-19T05:44:51;27.23;;;13.57;;
31836;SDS011;18401;49.344;6.240;2023-01-19T05:47:17;28.90;;;13.75;;
31836;SDS011;18401;49.344;6.240;2023-01-19T05:49:43;29.58;;;14.05;;
31836;SDS011;18401;49.344;6.240;2023-01-19T05:52:08;25.05;;;12.20;;
31836;SDS011;18401;49.344;6.240;2023-01-19T05:54:34;27.73;;;12.85;;
31836;SDS011;18401;49.344;6.240;2023-01-19T05:57:00;29.70;;;12.15;;
31836;SDS011;18401;49.344;6.240;2023-01-19T05:59:27;31.45;;;13.43;;
31836;SDS011;18401;49.344;6.240;2023-01-19T06:01:52;31.85;;;12.60;;
31836;SDS011;18401;49.344;6.240;2023-01-19T06:04:18;23.73;;;12.02;;
31836;SDS011;18401;49.344;6.240;2023-01-19T06:06:47;21.33;;;11.70;;
31836;SDS011;18401;49.344;6.240;2023-01-19T06:09:14;29.63;;;11.85;;
31836;SDS011;18401;49.344;6.240;2023-01-19T06:11:41;28.73;;;12.27;;
31836;SDS011;18401;49.344;6.240;2023-01-19T06:14:08;23.58;;;13.05;;
31836;SDS011;18401;49.344;6.240;2023-01-19T06:16:34;27.13;;;12.48;;
31836;SDS011;18401;49.344;6.240;2023-01-19T06:19:00;24.48;;;12.02;;
31836;SDS011;18401;49.344;6.240;2023-01-19T06:21:25;24.70;;;11.93;;
31836;SDS011;18401;49.344;6.240;2023-01-19T06:23:51;25.45;;;12.43;;
31836;SDS011;18401;49.344;6.240;2023-01-19T06:26:17;25.98;;;12.30;;
31836;SDS011;18401;49.344;6.240;2023-01-19T06:28:42;25.02;;;11.30;;
31836;SDS011;18401;49.344;6.240;2023-01-19T06:31:08;27.48;;;11.95;;
31836;SDS011;18401;49.344;6.240;2023-01-19T06:33:34;25.00;;;12.05;;
31836;SDS011;18401;49.344;6.240;2023-01-19T06:36:00;27.48;;;13.00;;
31836;SDS011;18401;49.344;6.240;2023-01-19T06:38:26;28.90;;;13.18;;
31836;SDS011;18401;49.344;6.240;2023-01-19T06:40:55;26.90;;;12.70;;
31836;SDS011;18401;49.344;6.240;2023-01-19T06:43:22;25.38;;;11.55;;
31836;SDS011;18401;49.344;6.240;2023-01-19T06:45:49;26.85;;;12.90;;
31836;SDS011;18401;49.344;6.240;2023-01-19T06:48:15;25.90;;;12.30;;
31836;SDS011;18401;49.344;6.240;2023-01-19T06:50:40;27.10;;;13.20;;
31836;SDS011;18401;49.344;6.240;2023-01-19T06:53:09;24.08;;;12.30;;
31836;SDS011;18401;49.344;6.240;2023-01-19T06:55:35;25.85;;;12.82;;
31836;SDS011;18401;49.344;6.240;2023-01-19T06:58:01;28.55;;;12.77;;
31836;SDS011;18401;49.344;6.240;2023-01-19T07:00:27;25.73;;;12.93;;
31836;SDS011;18401;49.344;6.240;2023-01-19T07:02:53;28.65;;;12.48;;
31836;SDS011;18401;49.344;6.240;2023-01-19T07:05:19;21.25;;;11.55;;
31836;SDS011;18401;49.344;6.240;2023-01-19T07:07:55;20.55;;;11.77;;
31836;SDS011;18401;49.344;6.240;2023-01-19T07:10:22;25.95;;;11.98;;
31836;SDS011;18401;49.344;6.240;2023-01-19T07:12:48;23.27;;;11.10;;
31836;SDS011;18401;49.344;6.240;2023-01-19T07:15:15;24.85;;;12.00;;
31836;SDS011;18401;49.344;6.240;2023-01-19T07:17:43;27.63;;;11.82;;
31836;SDS011;18401;49.344;6.240;2023-01-19T07:20:10;28.85;;;10.82;;
31836;SDS011;18401;49.344;6.240;2023-01-19T07:22:40;25.00;;;12.10;;
31836;SDS011;18401;49.344;6.240;2023-01-19T07:25:07;25.02;;;11.20;;
31836;SDS011;18401;49.344;6.240;2023-01-19T07:27:33;22.73;;;11.18;;
31836;SDS011;18401;49.344;6.240;2023-01-19T07:29:59;19.67;;;10.75;;
31836;SDS011;18401;49.344;6.240;2023-01-19T07:32:25;28.40;;;11.13;;
31836;SDS011;18401;49.344;6.240;2023-01-19T07:34:52;23.05;;;11.23;;
31836;SDS011;18401;49.344;6.240;2023-01-19T07:37:18;25.55;;;11.65;;
31836;SDS011;18401;49.344;6.240;2023-01-19T07:39:44;19.52;;;10.35;;
31836;SDS011;18401;49.344;6.240;2023-01-19T07:42:10;19.83;;;10.18;;
31836;SDS011;18401;49.344;6.240;2023-01-19T07:44:36;21.05;;;10.77;;
31836;SDS011;18401;49.344;6.240;2023-01-19T07:47:02;21.05;;;10.60;;
31836;SDS011;18401;49.344;6.240;2023-01-19T07:49:30;21.45;;;10.13;;
31836;SDS011;18401;49.344;6.240;2023-01-19T07:51:55;17.33;;;9.77;;
31836;SDS011;18401;49.344;6.240;2023-01-19T07:54:21;20.27;;;9.75;;
31836;SDS011;18401;49.344;6.240;2023-01-19T07:56:47;17.25;;;10.55;;
31836;SDS011;18401;49.344;6.240;2023-01-19T07:59:13;17.73;;;9.48;;
31836;SDS011;18401;49.344;6.240;2023-01-19T08:01:38;19.63;;;9.90;;
31836;SDS011;18401;49.344;6.240;2023-01-19T08:04:04;17.38;;;9.38;;
31836;SDS011;18401;49.344;6.240;2023-01-19T08:06:33;17.27;;;9.18;;
31836;SDS011;18401;49.344;6.240;2023-01-19T08:09:01;15.23;;;9.10;;
31836;SDS011;18401;49.344;6.240;2023-01-19T08:11:29;14.43;;;8.88;;
31836;SDS011;18401;49.344;6.240;2023-01-19T08:13:55;17.23;;;7.88;;
31836;SDS011;18401;49.344;6.240;2023-01-19T08:16:21;18.35;;;9.18;;
31836;SDS011;18401;49.344;6.240;2023-01-19T08:18:47;15.93;;;8.65;;
31836;SDS011;18401;49.344;6.240;2023-01-19T08:21:12;16.02;;;8.95;;
31836;SDS011;18401;49.344;6.240;2023-01-19T08:23:38;15.25;;;8.23;;
31836;SDS011;18401;49.344;6.240;2023-01-19T08:26:17;15.32;;;8.48;;
31836;SDS011;18401;49.344;6.240;2023-01-19T08:28:43;18.85;;;8.65;;
31836;SDS011;18401;49.344;6.240;2023-01-19T08:31:09;15.15;;;9.35;;
31836;SDS011;18401;49.344;6.240;2023-01-19T08:33:34;17.05;;;9.15;;
31836;SDS011;18401;49.344;6.240;2023-01-19T08:36:00;27.77;;;10.15;;
31836;SDS011;18401;49.344;6.240;2023-01-19T08:38:26;17.52;;;9.23;;
31836;SDS011;18401;49.344;6.240;2023-01-19T08:40:52;15.18;;;9.02;;
31836;SDS011;18401;49.344;6.240;2023-01-19T08:43:17;19.00;;;9.98;;
31836;SDS011;18401;49.344;6.240;2023-01-19T08:45:49;18.48;;;9.68;;
31836;SDS011;18401;49.344;6.240;2023-01-19T08:48:17;17.10;;;8.98;;
31836;SDS011;18401;49.344;6.240;2023-01-19T08:50:46;22.02;;;9.10;;
31836;SDS011;18401;49.344;6.240;2023-01-19T08:53:13;18.25;;;9.00;;
31836;SDS011;18401;49.344;6.240;2023-01-19T08:55:39;18.85;;;10.13;;
31836;SDS011;18401;49.344;6.240;2023-01-19T08:58:05;17.30;;;8.95;;
31836;SDS011;18401;49.344;6.240;2023-01-19T09:00:32;17.45;;;9.60;;
31836;SDS011;18401;49.344;6.240;2023-01-19T09:03:01;20.67;;;10.43;;
31836;SDS011;18401;49.344;6.240;2023-01-19T09:05:28;16.75;;;10.18;;
31836;SDS011;18401;49.344;6.240;2023-01-19T09:08:00;20.05;;;11.60;;
31836;SDS011;18401;49.344;6.240;2023-01-19T09:10:29;18.05;;;10.38;;
31836;SDS011;18401;49.344;6.240;2023-01-19T09:13:03;22.55;;;10.68;;
31836;SDS011;18401;49.344;6.240;2023-01-19T09:15:32;21.38;;;10.68;;
31836;SDS011;18401;49.344;6.240;2023-01-19T09:18:00;18.15;;;10.15;;
31836;SDS011;18401;49.344;6.240;2023-01-19T09:20:26;19.02;;;10.20;;
31836;SDS011;18401;49.344;6.240;2023-01-19T09:22:55;17.00;;;9.57;;
31836;SDS011;18401;49.344;6.240;2023-01-19T09:25:23;18.13;;;9.45;;
31836;SDS011;18401;49.344;6.240;2023-01-19T09:27:49;17.05;;;10.65;;
31836;SDS011;18401;49.344;6.240;2023-01-19T09:30:15;17.83;;;9.98;;
31836;SDS011;18401;49.344;6.240;2023-01-19T09:32:41;16.55;;;9.15;;
31836;SDS011;18401;49.344;6.240;2023-01-19T09:35:09;16.35;;;8.95;;
31836;SDS011;18401;49.344;6.240;2023-01-19T09:37:34;17.83;;;8.95;;
31836;SDS011;18401;49.344;6.240;2023-01-19T09:40:00;16.17;;;9.10;;
31836;SDS011;18401;49.344;6.240;2023-01-19T09:42:39;13.82;;;8.50;;
31836;SDS011;18401;49.344;6.240;2023-01-19T09:45:15;15.23;;;8.80;;
31836;SDS011;18401;49.344;6.240;2023-01-19T09:48:00;15.82;;;9.10;;
31836;SDS011;18401;49.344;6.240;2023-01-19T09:50:33;19.33;;;9.38;;
31836;SDS011;18401;49.344;6.240;2023-01-19T09:53:14;26.50;;;9.15;;
31836;SDS011;18401;49.344;6.240;2023-01-19T09:55:57;11.90;;;8.10;;
31836;SDS011;18401;49.344;6.240;2023-01-19T09:58:23;17.75;;;9.05;;
31836;SDS011;18401;49.344;6.240;2023-01-19T10:00:52;15.90;;;8.32;;
31836;SDS011;18401;49.344;6.240;2023-01-19T10:03:22;13.77;;;8.45;;
31836;SDS011;18401;49.344;6.240;2023-01-19T10:08:31;14.15;;;9.43;;
31836;SDS011;18401;49.344;6.240;2023-01-19T10:13:49;18.20;;;8.60;;
31836;SDS011;18401;49.344;6.240;2023-01-19T10:19:54;15.57;;;9.25;;
31836;SDS011;18401;49.344;6.240;2023-01-19T10:22:02;16.27;;;8.07;;
31836;SDS011;18401;49.344;6.240;2023-01-19T10:24:37;19.90;;;8.65;;
31836;SDS011;18401;49.344;6.240;2023-01-19T10:27:16;12.52;;;8.20;;
31836;SDS011;18401;49.344;6.240;2023-01-19T10:29:43;12.90;;;7.95;;
31836;SDS011;18401;49.344;6.240;2023-01-19T10:32:14;16.05;;;8.85;;
31836;SDS011;18401;49.344;6.240;2023-01-19T10:34:42;15.15;;;7.13;;
31836;SDS011;18401;49.344;6.240;2023-01-19T10:37:50;12.40;;;7.60;;
31836;SDS011;18401;49.344;6.240;2023-01-19T10:40:12;10.43;;;6.88;;
31836;SDS011;18401;49.344;6.240;2023-01-19T10:42:46;10.45;;;7.45;;
31836;SDS011;18401;49.344;6.240;2023-01-19T10:47:40;13.57;;;7.75;;
31836;SDS011;18401;49.344;6.240;2023-01-19T10:52:51;16.85;;;7.90;;
31836;SDS011;18401;49.344;6.240;2023-01-19T10:55:23;14.68;;;7.90;;
31836;SDS011;18401;49.344;6.240;2023-01-19T10:57:54;20.75;;;8.30;;
31836;SDS011;18401;49.344;6.240;2023-01-19T11:00:32;15.65;;;8.02;;
31836;SDS011;18401;49.344;6.240;2023-01-19T11:03:01;12.77;;;7.55;;
31836;SDS011;18401;49.344;6.240;2023-01-19T11:05:29;9.90;;;7.13;;
31836;SDS011;18401;49.344;6.240;2023-01-19T11:07:56;14.38;;;7.05;;
31836;SDS011;18401;49.344;6.240;2023-01-19T11:10:24;8.88;;;6.57;;
31836;SDS011;18401;49.344;6.240;2023-01-19T11:12:57;12.60;;;6.60;;
31836;SDS011;18401;49.344;6.240;2023-01-19T11:15:30;14.70;;;6.90;;
31836;SDS011;18401;49.344;6.240;2023-01-19T11:17:56;13.02;;;7.35;;
31836;SDS011;18401;49.344;6.240;2023-01-19T11:20:23;10.57;;;6.47;;
31836;SDS011;18401;49.344;6.240;2023-01-19T11:23:04;14.07;;;6.82;;
31836;SDS011;18401;49.344;6.240;2023-01-19T11:25:38;15.07;;;7.22;;
31836;SDS011;18401;49.344;6.240;2023-01-19T11:28:04;11.80;;;6.30;;
31836;SDS011;18401;49.344;6.240;2023-01-19T11:30:52;13.75;;;5.75;;
31836;SDS011;18401;49.344;6.240;2023-01-19T11:33:23;12.40;;;6.60;;
31836;SDS011;18401;49.344;6.240;2023-01-19T11:35:52;10.10;;;6.68;;
31836;SDS011;18401;49.344;6.240;2023-01-19T11:38:27;12.23;;;6.13;;
31836;SDS011;18401;49.344;6.240;2023-01-19T11:40:54;10.57;;;6.40;;
31836;SDS011;18401;49.344;6.240;2023-01-19T11:43:22;11.60;;;6.45;;
31836;SDS011;18401;49.344;6.240;2023-01-19T11:45:49;9.15;;;5.78;;
31836;SDS011;18401;49.344;6.240;2023-01-19T11:48:21;15.70;;;6.75;;
31836;SDS011;18401;49.344;6.240;2023-01-19T11:50:54;8.80;;;6.22;;
31836;SDS011;18401;49.344;6.240;2023-01-19T11:53:25;14.45;;;5.70;;
31836;SDS011;18401;49.344;6.240;2023-01-19T11:56:05;13.60;;;5.72;;
31836;SDS011;18401;49.344;6.240;2023-01-19T11:58:39;15.70;;;5.78;;
31836;SDS011;18401;49.344;6.240;2023-01-19T12:06:31;8.68;;;5.55;;
31836;SDS011;18401;49.344;6.240;2023-01-19T12:11:39;6.90;;;4.93;;
31836;SDS011;18401;49.344;6.240;2023-01-19T12:14:54;11.05;;;5.78;;
31836;SDS011;18401;49.344;6.240;2023-01-19T12:17:02;9.77;;;5.15;;
31836;SDS011;18401;49.344;6.240;2023-01-19T12:19:42;11.52;;;5.55;;
31836;SDS011;18401;49.344;6.240;2023-01-19T12:22:17;10.75;;;5.28;;
31836;SDS011;18401;49.344;6.240;2023-01-19T12:24:45;7.03;;;5.63;;
31836;SDS011;18401;49.344;6.240;2023-01-19T12:27:21;10.90;;;6.07;;
31836;SDS011;18401;49.344;6.240;2023-01-19T12:30:00;9.43;;;5.22;;
31836;SDS011;18401;49.344;6.240;2023-01-19T12:32:35;8.63;;;5.25;;
31836;SDS011;18401;49.344;6.240;2023-01-19T12:35:01;13.07;;;5.82;;
31836;SDS011;18401;49.344;6.240;2023-01-19T12:39:57;11.80;;;5.75;;
31836;SDS011;18401;49.344;6.240;2023-01-19T12:42:26;7.00;;;5.25;;
31836;SDS011;18401;49.344;6.240;2023-01-19T12:45:12;10.65;;;5.82;;
31836;SDS011;18401;49.344;6.240;2023-01-19T12:47:54;13.82;;;5.32;;
31836;SDS011;18401;49.344;6.240;2023-01-19T12:50:21;8.10;;;5.38;;
31836;SDS011;18401;49.344;6.240;2023-01-19T12:52:56;9.90;;;5.32;;
31836;SDS011;18401;49.344;6.240;2023-01-19T12:55:26;8.40;;;5.47;;
31836;SDS011;18401;49.344;6.240;2023-01-19T13:00:29;8.77;;;6.10;;
31836;SDS011;18401;49.344;6.240;2023-01-19T13:13:40;12.13;;;5.43;;
31836;SDS011;18401;49.344;6.240;2023-01-19T13:18:42;7.07;;;5.32;;
31836;SDS011;18401;49.344;6.240;2023-01-19T13:21:38;8.27;;;4.93;;
31836;SDS011;18401;49.344;6.240;2023-01-19T13:24:14;10.55;;;5.88;;
31836;SDS011;18401;49.344;6.240;2023-01-19T13:31:45;10.60;;;5.05;;
31836;SDS011;18401;49.344;6.240;2023-01-19T13:34:24;10.00;;;5.75;;
31836;SDS011;18401;49.344;6.240;2023-01-19T13:36:52;8.38;;;5.35;;
31836;SDS011;18401;49.344;6.240;2023-01-19T13:39:21;7.05;;;5.15;;
31836;SDS011;18401;49.344;6.240;2023-01-19T13:41:49;13.50;;;5.72;;
31836;SDS011;18401;49.344;6.240;2023-01-19T13:44:52;7.93;;;5.35;;
31836;SDS011;18401;49.344;6.240;2023-01-19T13:47:23;11.63;;;6.45;;
31836;SDS011;18401;49.344;6.240;2023-01-19T13:49:56;10.63;;;6.05;;
31836;SDS011;18401;49.344;6.240;2023-01-19T13:52:23;16.00;;;6.57;;
31836;SDS011;18401;49.344;6.240;2023-01-19T13:54:55;10.88;;;6.15;;
31836;SDS011;18401;49.344;6.240;2023-01-19T13:57:30;9.00;;;5.82;;
31836;SDS011;18401;49.344;6.240;2023-01-19T14:08:00;12.13;;;6.97;;
31836;SDS011;18401;49.344;6.240;2023-01-19T14:10:25;10.13;;;7.10;;
31836;SDS011;18401;49.344;6.240;2023-01-19T14:13:02;10.15;;;6.43;;
31836;SDS011;18401;49.344;6.240;2023-01-19T14:15:33;10.35;;;6.28;;
31836;SDS011;18401;49.344;6.240;2023-01-19T14:26:01;15.18;;;6.47;;
31836;SDS011;18401;49.344;6.240;2023-01-19T14:30:58;10.48;;;5.88;;
31836;SDS011;18401;49.344;6.240;2023-01-19T14:33:34;14.52;;;5.70;;
31836;SDS011;18401;49.344;6.240;2023-01-19T14:38:44;9.95;;;5.82;;
31836;SDS011;18401;49.344;6.240;2023-01-19T14:41:57;6.97;;;5.57;;
31836;SDS011;18401;49.344;6.240;2023-01-19T14:44:10;9.90;;;6.50;;
31836;SDS011;18401;49.344;6.240;2023-01-19T14:46:44;10.85;;;5.50;;
31836;SDS011;18401;49.344;6.240;2023-01-19T14:49:12;9.13;;;5.18;;
31836;SDS011;18401;49.344;6.240;2023-01-19T14:51:44;8.93;;;5.55;;
31836;SDS011;18401;49.344;6.240;2023-01-19T14:54:14;10.90;;;5.00;;
31836;SDS011;18401;49.344;6.240;2023-01-19T14:56:41;8.82;;;6.25;;
31836;SDS011;18401;49.344;6.240;2023-01-19T14:59:08;12.00;;;6.03;;
31836;SDS011;18401;49.344;6.240;2023-01-19T15:01:35;12.50;;;5.88;;
31836;SDS011;18401;49.344;6.240;2023-01-19T15:04:00;10.80;;;6.45;;
31836;SDS011;18401;49.344;6.240;2023-01-19T15:06:26;10.65;;;7.53;;
31836;SDS011;18401;49.344;6.240;2023-01-19T15:08:52;13.40;;;8.48;;
31836;SDS011;18401;49.344;6.240;2023-01-19T15:13:59;14.30;;;6.88;;
31836;SDS011;18401;49.344;6.240;2023-01-19T15:16:26;14.85;;;7.82;;
31836;SDS011;18401;49.344;6.240;2023-01-19T15:18:53;16.15;;;7.30;;
31836;SDS011;18401;49.344;6.240;2023-01-19T15:21:20;11.98;;;7.20;;
31836;SDS011;18401;49.344;6.240;2023-01-19T15:23:50;12.55;;;6.88;;
31836;SDS011;18401;49.344;6.240;2023-01-19T15:26:22;13.95;;;7.07;;
31836;SDS011;18401;49.344;6.240;2023-01-19T15:28:50;12.38;;;7.00;;
31836;SDS011;18401;49.344;6.240;2023-01-19T15:31:20;10.05;;;6.43;;
31836;SDS011;18401;49.344;6.240;2023-01-19T15:33:47;9.25;;;6.18;;
31836;SDS011;18401;49.344;6.240;2023-01-19T15:36:14;11.13;;;6.70;;
31836;SDS011;18401;49.344;6.240;2023-01-19T15:38:41;14.13;;;6.75;;
31836;SDS011;18401;49.344;6.240;2023-01-19T15:41:29;8.02;;;5.53;;
31836;SDS011;18401;49.344;6.240;2023-01-19T15:43:54;10.07;;;4.78;;
31836;SDS011;18401;49.344;6.240;2023-01-19T15:46:20;23.92;;;6.50;;
31836;SDS011;18401;49.344;6.240;2023-01-19T15:48:48;11.40;;;5.72;;
31836;SDS011;18401;49.344;6.240;2023-01-19T15:51:18;16.15;;;6.03;;
31836;SDS011;18401;49.344;6.240;2023-01-19T15:53:46;9.02;;;5.30;;
31836;SDS011;18401;49.344;6.240;2023-01-19T15:56:15;11.18;;;5.78;;
31836;SDS011;18401;49.344;6.240;2023-01-19T15:58:43;14.77;;;5.63;;
31836;SDS011;18401;49.344;6.240;2023-01-19T16:01:11;9.00;;;5.38;;
31836;SDS011;18401;49.344;6.240;2023-01-19T16:03:38;8.38;;;5.00;;
31836;SDS011;18401;49.344;6.240;2023-01-19T16:06:04;8.95;;;5.68;;
31836;SDS011;18401;49.344;6.240;2023-01-19T16:08:30;11.43;;;5.05;;
31836;SDS011;18401;49.344;6.240;2023-01-19T16:10:55;7.28;;;5.10;;
31836;SDS011;18401;49.344;6.240;2023-01-19T16:13:21;10.88;;;5.03;;
31836;SDS011;18401;49.344;6.240;2023-01-19T16:15:47;14.13;;;5.13;;
31836;SDS011;18401;49.344;6.240;2023-01-19T16:18:12;5.25;;;4.40;;
31836;SDS011;18401;49.344;6.240;2023-01-19T16:20:38;12.23;;;5.47;;
31836;SDS011;18401;49.344;6.240;2023-01-19T16:23:04;7.53;;;4.88;;
31836;SDS011;18401;49.344;6.240;2023-01-19T16:25:30;11.73;;;4.78;;
31836;SDS011;18401;49.344;6.240;2023-01-19T16:27:56;7.00;;;4.13;;
31836;SDS011;18401;49.344;6.240;2023-01-19T16:30:21;10.68;;;4.40;;
31836;SDS011;18401;49.344;6.240;2023-01-19T16:32:47;8.43;;;4.38;;
31836;SDS011;18401;49.344;6.240;2023-01-19T16:35:13;6.20;;;4.10;;
31836;SDS011;18401;49.344;6.240;2023-01-19T16:37:39;7.50;;;4.50;;
31836;SDS011;18401;49.344;6.240;2023-01-19T16:40:06;11.60;;;4.05;;
31836;SDS011;18401;49.344;6.240;2023-01-19T16:42:32;6.82;;;4.10;;
31836;SDS011;18401;49.344;6.240;2023-01-19T16:44:58;4.30;;;3.50;;
31836;SDS011;18401;49.344;6.240;2023-01-19T16:47:23;7.68;;;4.13;;
31836;SDS011;18401;49.344;6.240;2023-01-19T16:49:49;10.68;;;3.90;;
31836;SDS011;18401;49.344;6.240;2023-01-19T16:52:15;5.32;;;3.85;;
31836;SDS011;18401;49.344;6.240;2023-01-19T16:54:41;6.10;;;3.65;;
31836;SDS011;18401;49.344;6.240;2023-01-19T16:57:08;8.00;;;4.03;;
31836;SDS011;18401;49.344;6.240;2023-01-19T16:59:35;6.97;;;3.88;;
31836;SDS011;18401;49.344;6.240;2023-01-19T17:02:01;8.20;;;4.07;;
31836;SDS011;18401;49.344;6.240;2023-01-19T17:04:27;12.88;;;5.13;;
31836;SDS011;18401;49.344;6.240;2023-01-19T17:06:53;9.32;;;4.70;;
31836;SDS011;18401;49.344;6.240;2023-01-19T17:09:19;5.75;;;4.10;;
31836;SDS011;18401;49.344;6.240;2023-01-19T17:11:45;9.07;;;5.10;;
31836;SDS011;18401;49.344;6.240;2023-01-19T17:14:12;12.45;;;5.22;;
31836;SDS011;18401;49.344;6.240;2023-01-19T17:16:39;12.00;;;5.15;;
31836;SDS011;18401;49.344;6.240;2023-01-19T17:19:06;12.30;;;5.38;;
31836;SDS011;18401;49.344;6.240;2023-01-19T17:21:33;14.40;;;6.03;;
31836;SDS011;18401;49.344;6.240;2023-01-19T17:23:59;8.98;;;5.60;;
31836;SDS011;18401;49.344;6.240;2023-01-19T17:26:26;21.45;;;10.27;;
31836;SDS011;18401;49.344;6.240;2023-01-19T17:29:00;15.30;;;10.40;;
31836;SDS011;18401;49.344;6.240;2023-01-19T17:31:27;12.67;;;7.47;;
31836;SDS011;18401;49.344;6.240;2023-01-19T17:33:54;15.32;;;8.75;;
31836;SDS011;18401;49.344;6.240;2023-01-19T17:36:21;14.75;;;7.78;;
31836;SDS011;18401;49.344;6.240;2023-01-19T17:38:49;15.60;;;8.88;;
31836;SDS011;18401;49.344;6.240;2023-01-19T17:41:17;25.50;;;13.50;;
31836;SDS011;18401;49.344;6.240;2023-01-19T17:43:53;20.95;;;11.80;;
31836;SDS011;18401;49.344;6.240;2023-01-19T17:46:20;26.90;;;13.80;;
31836;SDS011;18401;49.344;6.240;2023-01-19T17:48:55;36.95;;;19.92;;
31836;SDS011;18401;49.344;6.240;2023-01-19T17:51:22;39.50;;;19.25;;
31836;SDS011;18401;49.344;6.240;2023-01-19T17:53:49;49.53;;;21.17;;
31836;SDS011;18401;49.344;6.240;2023-01-19T17:56:16;37.65;;;19.00;;
31836;SDS011;18401;49.344;6.240;2023-01-19T17:58:46;30.60;;;17.05;;
31836;SDS011;18401;49.344;6.240;2023-01-19T18:01:16;39.83;;;18.25;;
31836;SDS011;18401;49.344;6.240;2023-01-19T18:03:44;51.83;;;23.08;;
31836;SDS011;18401;49.344;6.240;2023-01-19T18:06:10;33.40;;;17.52;;
31836;SDS011;18401;49.344;6.240;2023-01-19T18:08:37;42.47;;;20.60;;
31836;SDS011;18401;49.344;6.240;2023-01-19T18:11:03;36.28;;;18.10;;
31836;SDS011;18401;49.344;6.240;2023-01-19T18:13:29;36.55;;;17.52;;
31836;SDS011;18401;49.344;6.240;2023-01-19T18:15:58;36.85;;;17.80;;
31836;SDS011;18401;49.344;6.240;2023-01-19T18:18:25;44.33;;;20.17;;
31836;SDS011;18401;49.344;6.240;2023-01-19T18:20:50;31.95;;;16.63;;
31836;SDS011;18401;49.344;6.240;2023-01-19T18:23:16;25.92;;;13.48;;
31836;SDS011;18401;49.344;6.240;2023-01-19T18:25:42;22.13;;;12.50;;
31836;SDS011;18401;49.344;6.240;2023-01-19T18:28:08;24.73;;;12.13;;
31836;SDS011;18401;49.344;6.240;2023-01-19T18:30:34;30.38;;;14.07;;
31836;SDS011;18401;49.344;6.240;2023-01-19T18:33:01;28.30;;;14.57;;
31836;SDS011;18401;49.344;6.240;2023-01-19T18:35:26;24.15;;;11.55;;
31836;SDS011;18401;49.344;6.240;2023-01-19T18:37:52;26.38;;;12.75;;
31836;SDS011;18401;49.344;6.240;2023-01-19T18:40:20;23.42;;;11.35;;
31836;SDS011;18401;49.344;6.240;2023-01-19T18:42:47;18.25;;;11.25;;
31836;SDS011;18401;49.344;6.240;2023-01-19T18:45:13;18.00;;;9.93;;
31836;SDS011;18401;49.344;6.240;2023-01-19T18:47:39;20.52;;;10.45;;
31836;SDS011;18401;49.344;6.240;2023-01-19T18:50:05;17.83;;;9.93;;
31836;SDS011;18401;49.344;6.240;2023-01-19T18:52:30;19.23;;;9.40;;
31836;SDS011;18401;49.344;6.240;2023-01-19T18:54:57;18.23;;;9.88;;
31836;SDS011;18401;49.344;6.240;2023-01-19T18:57:23;35.05;;;15.75;;
31836;SDS011;18401;49.344;6.240;2023-01-19T18:59:49;46.53;;;20.90;;
31836;SDS011;18401;49.344;6.240;2023-01-19T19:02:14;44.47;;;18.55;;
31836;SDS011;18401;49.344;6.240;2023-01-19T19:04:40;33.22;;;17.67;;
31836;SDS011;18401;49.344;6.240;2023-01-19T19:07:06;32.25;;;15.60;;
31836;SDS011;18401;49.344;6.240;2023-01-19T19:09:31;27.38;;;14.50;;
31836;SDS011;18401;49.344;6.240;2023-01-19T19:11:57;22.17;;;12.38;;
31836;SDS011;18401;49.344;6.240;2023-01-19T19:14:23;23.83;;;13.30;;
31836;SDS011;18401;49.344;6.240;2023-01-19T19:16:49;32.35;;;17.40;;
31836;SDS011;18401;49.344;6.240;2023-01-19T19:19:15;24.73;;;14.20;;
31836;SDS011;18401;49.344;6.240;2023-01-19T19:21:41;28.52;;;13.60;;
31836;SDS011;18401;49.344;6.240;2023-01-19T19:24:07;19.88;;;11.50;;
31836;SDS011;18401;49.344;6.240;2023-01-19T19:26:35;26.95;;;12.35;;
31836;SDS011;18401;49.344;6.240;2023-01-19T19:29:00;24.75;;;12.23;;
31836;SDS011;18401;49.344;6.240;2023-01-19T19:31:27;29.88;;;13.13;;
31836;SDS011;18401;49.344;6.240;2023-01-19T19:33:54;20.55;;;12.27;;
31836;SDS011;18401;49.344;6.240;2023-01-19T19:36:21;21.73;;;11.82;;
31836;SDS011;18401;49.344;6.240;2023-01-19T19:38:48;15.45;;;10.63;;
31836;SDS011;18401;49.344;6.240;2023-01-19T19:41:15;17.23;;;9.93;;
31836;SDS011;18401;49.344;6.240;2023-01-19T19:43:43;17.10;;;10.23;;
31836;SDS011;18401;49.344;6.240;2023-01-19T19:46:09;21.10;;;10.77;;
31836;SDS011;18401;49.344;6.240;2023-01-19T19:48:36;20.30;;;11.50;;
31836;SDS011;18401;49.344;6.240;2023-01-19T19:51:10;23.60;;;12.25;;
31836;SDS011;18401;49.344;6.240;2023-01-19T19:53:37;24.08;;;12.10;;
31836;SDS011;18401;49.344;6.240;2023-01-19T19:56:04;27.75;;;13.90;;
31836;SDS011;18401;49.344;6.240;2023-01-19T19:58:32;23.02;;;11.90;;
31836;SDS011;18401;49.344;6.240;2023-01-19T20:00:58;25.10;;;13.50;;
31836;SDS011;18401;49.344;6.240;2023-01-19T20:03:28;27.48;;;12.60;;
31836;SDS011;18401;49.344;6.240;2023-01-19T20:05:54;29.02;;;14.35;;
31836;SDS011;18401;49.344;6.240;2023-01-19T20:08:26;27.73;;;13.40;;
31836;SDS011;18401;49.344;6.240;2023-01-19T20:10:53;20.73;;;11.48;;
31836;SDS011;18401;49.344;6.240;2023-01-19T20:13:19;26.27;;;12.15;;
31836;SDS011;18401;49.344;6.240;2023-01-19T20:15:46;20.98;;;10.32;;
31836;SDS011;18401;49.344;6.240;2023-01-19T20:18:11;20.98;;;10.48;;
31836;SDS011;18401;49.344;6.240;2023-01-19T20:20:37;17.85;;;9.70;;
31836;SDS011;18401;49.344;6.240;2023-01-19T20:23:03;15.77;;;9.25;;
31836;SDS011;18401;49.344;6.240;2023-01-19T20:25:28;20.10;;;8.50;;
31836;SDS011;18401;49.344;6.240;2023-01-19T20:27:54;13.13;;;8.05;;
31836;SDS011;18401;49.344;6.240;2023-01-19T20:30:21;17.52;;;8.20;;
31836;SDS011;18401;49.344;6.240;2023-01-19T20:32:47;15.20;;;7.53;;
31836;SDS011;18401;49.344;6.240;2023-01-19T20:35:12;24.45;;;8.32;;
31836;SDS011;18401;49.344;6.240;2023-01-19T20:37:39;14.90;;;8.40;;
31836;SDS011;18401;49.344;6.240;2023-01-19T20:40:05;21.85;;;9.68;;
31836;SDS011;18401;49.344;6.240;2023-01-19T20:42:30;23.05;;;12.30;;
31836;SDS011;18401;49.344;6.240;2023-01-19T20:44:56;21.83;;;12.32;;